sensor_id;sensor_type;location;lat;lon;timestamp;P1;durP1;ratioP1;P2;durP2;ratioP2
73632;SDS011;61927;50.080;14.418;2023-03-01T00:00:54;43.17;;;21.73;;
73632;SDS011;61927;50.080;14.418;2023-03-01T00:03:36;41.42;;;21.70;;
73632;SDS011;61927;50.080;14.418;2023-03-01T00:06:02;37.90;;;21.75;;
73632;SDS011;61927;50.080;14.418;2023-03-01T00:08:28;36.60;;;20.55;;
73632;SDS011;61927;50.080;14.418;2023-03-01T00:13:48;34.30;;;20.08;;
73632;SDS011;61927;50.080;14.418;2023-03-01T00:16:16;38.47;;;20.02;;
73632;SDS011;61927;50.080;14.418;2023-03-01T00:18:44;33.58;;;19.25;;
73632;SDS011;61927;50.080;14.418;2023-03-01T00:21:10;36.95;;;21.40;;
73632;SDS011;61927;50.080;14.418;2023-03-01T00:23:37;34.55;;;19.98;;
73632;SDS011;61927;50.080;14.418;2023-03-01T00:26:05;38.63;;;19.70;;
73632;SDS011;61927;50.080;14.418;2023-03-01T00:28:33;34.83;;;19.33;;
73632;SDS011;61927;50.080;14.418;2023-03-01T00:35:58;33.55;;;19.02;;
73632;SDS011;61927;50.080;14.418;2023-03-01T00:38:25;38.08;;;19.52;;
73632;SDS011;61927;50.080;14.418;2023-03-01T00:40:50;34.17;;;19.17;;
73632;SDS011;61927;50.080;14.418;2023-03-01T00:43:16;38.63;;;19.48;;
73632;SDS011;61927;50.080;14.418;2023-03-01T00:45:41;41.75;;;19.55;;
73632;SDS011;61927;50.080;14.418;2023-03-01T00:48:07;33.72;;;18.48;;
73632;SDS011;61927;50.080;14.418;2023-03-01T00:50:32;40.42;;;20.30;;
73632;SDS011;61927;50.080;14.418;2023-03-01T00:52:58;32.97;;;19.35;;
73632;SDS011;61927;50.080;14.418;2023-03-01T00:55:24;36.00;;;18.52;;
73632;SDS011;61927;50.080;14.418;2023-03-01T00:57:51;37.17;;;18.63;;
73632;SDS011;61927;50.080;14.418;2023-03-01T01:00:16;32.67;;;18.70;;
73632;SDS011;61927;50.080;14.418;2023-03-01T01:02:43;34.92;;;19.60;;
73632;SDS011;61927;50.080;14.418;2023-03-01T01:05:08;32.95;;;19.73;;
73632;SDS011;61927;50.080;14.418;2023-03-01T01:07:34;40.30;;;20.50;;
73632;SDS011;61927;50.080;14.418;2023-03-01T01:10:00;34.20;;;18.58;;
73632;SDS011;61927;50.080;14.418;2023-03-01T01:12:26;31.20;;;19.35;;
73632;SDS011;61927;50.080;14.418;2023-03-01T01:14:51;33.88;;;18.77;;
73632;SDS011;61927;50.080;14.418;2023-03-01T01:17:18;38.97;;;18.80;;
73632;SDS011;61927;50.080;14.418;2023-03-01T01:19:44;35.60;;;19.15;;
73632;SDS011;61927;50.080;14.418;2023-03-01T01:22:10;35.72;;;19.45;;
73632;SDS011;61927;50.080;14.418;2023-03-01T01:24:35;30.48;;;18.25;;
73632;SDS011;61927;50.080;14.418;2023-03-01T01:27:01;36.97;;;18.52;;
73632;SDS011;61927;50.080;14.418;2023-03-01T01:29:26;35.55;;;18.52;;
73632;SDS011;61927;50.080;14.418;2023-03-01T01:31:52;34.45;;;18.15;;
73632;SDS011;61927;50.080;14.418;2023-03-01T01:34:19;35.63;;;18.20;;
73632;SDS011;61927;50.080;14.418;2023-03-01T01:36:49;35.47;;;17.33;;
73632;SDS011;61927;50.080;14.418;2023-03-01T01:39:21;28.05;;;17.60;;
73632;SDS011;61927;50.080;14.418;2023-03-01T01:41:48;30.27;;;18.52;;
73632;SDS011;61927;50.080;14.418;2023-03-01T01:44:21;33.97;;;19.33;;
73632;SDS011;61927;50.080;14.418;2023-03-01T01:46:58;30.90;;;19.10;;
73632;SDS011;61927;50.080;14.418;2023-03-01T01:49:38;34.00;;;19.38;;
73632;SDS011;61927;50.080;14.418;2023-03-01T01:57:15;38.97;;;20.30;;
73632;SDS011;61927;50.080;14.418;2023-03-01T01:59:45;39.40;;;20.55;;
73632;SDS011;61927;50.080;14.418;2023-03-01T02:02:17;41.63;;;19.58;;
73632;SDS011;61927;50.080;14.418;2023-03-01T02:04:43;43.17;;;21.08;;
73632;SDS011;61927;50.080;14.418;2023-03-01T02:07:13;40.78;;;21.55;;
73632;SDS011;61927;50.080;14.418;2023-03-01T02:09:48;39.78;;;21.55;;
73632;SDS011;61927;50.080;14.418;2023-03-01T02:12:17;39.53;;;21.23;;
73632;SDS011;61927;50.080;14.418;2023-03-01T02:14:43;39.00;;;21.00;;
73632;SDS011;61927;50.080;14.418;2023-03-01T02:17:10;44.38;;;22.25;;
73632;SDS011;61927;50.080;14.418;2023-03-01T02:19:40;41.47;;;21.48;;
73632;SDS011;61927;50.080;14.418;2023-03-01T02:22:20;42.00;;;22.27;;
73632;SDS011;61927;50.080;14.418;2023-03-01T02:25:07;37.05;;;20.15;;
73632;SDS011;61927;50.080;14.418;2023-03-01T02:30:38;36.17;;;19.92;;
73632;SDS011;61927;50.080;14.418;2023-03-01T02:33:25;36.13;;;20.80;;
73632;SDS011;61927;50.080;14.418;2023-03-01T02:35:52;37.17;;;20.50;;
73632;SDS011;61927;50.080;14.418;2023-03-01T02:38:19;42.95;;;20.90;;
73632;SDS011;61927;50.080;14.418;2023-03-01T02:40:46;39.42;;;20.88;;
73632;SDS011;61927;50.080;14.418;2023-03-01T02:43:15;35.97;;;20.73;;
73632;SDS011;61927;50.080;14.418;2023-03-01T02:45:47;37.38;;;20.70;;
73632;SDS011;61927;50.080;14.418;2023-03-01T02:48:18;39.95;;;21.10;;
73632;SDS011;61927;50.080;14.418;2023-03-01T02:53:34;37.05;;;21.05;;
73632;SDS011;61927;50.080;14.418;2023-03-01T02:56:08;36.83;;;20.35;;
73632;SDS011;61927;50.080;14.418;2023-03-01T02:58:39;38.92;;;20.45;;
73632;SDS011;61927;50.080;14.418;2023-03-01T03:01:13;39.22;;;20.20;;
73632;SDS011;61927;50.080;14.418;2023-03-01T03:03:41;41.80;;;20.38;;
73632;SDS011;61927;50.080;14.418;2023-03-01T03:06:08;36.58;;;20.15;;
73632;SDS011;61927;50.080;14.418;2023-03-01T03:08:34;42.05;;;20.70;;
73632;SDS011;61927;50.080;14.418;2023-03-01T03:11:00;32.55;;;19.35;;
73632;SDS011;61927;50.080;14.418;2023-03-01T03:13:25;35.13;;;20.17;;
73632;SDS011;61927;50.080;14.418;2023-03-01T03:15:57;38.13;;;20.30;;
73632;SDS011;61927;50.080;14.418;2023-03-01T03:18:23;38.35;;;19.58;;
73632;SDS011;61927;50.080;14.418;2023-03-01T03:20:51;35.22;;;19.98;;
73632;SDS011;61927;50.080;14.418;2023-03-01T03:23:19;39.75;;;19.52;;
73632;SDS011;61927;50.080;14.418;2023-03-01T03:25:47;38.50;;;20.08;;
73632;SDS011;61927;50.080;14.418;2023-03-01T03:28:14;35.63;;;21.17;;
73632;SDS011;61927;50.080;14.418;2023-03-01T03:30:41;37.90;;;21.52;;
73632;SDS011;61927;50.080;14.418;2023-03-01T03:33:08;37.42;;;20.77;;
73632;SDS011;61927;50.080;14.418;2023-03-01T03:35:38;35.65;;;20.25;;
73632;SDS011;61927;50.080;14.418;2023-03-01T03:38:09;36.85;;;20.05;;
73632;SDS011;61927;50.080;14.418;2023-03-01T03:40:47;40.95;;;19.98;;
73632;SDS011;61927;50.080;14.418;2023-03-01T03:43:18;38.10;;;19.75;;
73632;SDS011;61927;50.080;14.418;2023-03-01T03:45:46;35.15;;;19.05;;
73632;SDS011;61927;50.080;14.418;2023-03-01T03:48:13;32.45;;;19.17;;
73632;SDS011;61927;50.080;14.418;2023-03-01T03:50:39;37.90;;;19.50;;
73632;SDS011;61927;50.080;14.418;2023-03-01T03:53:08;39.00;;;20.83;;
73632;SDS011;61927;50.080;14.418;2023-03-01T03:55:36;45.90;;;19.38;;
73632;SDS011;61927;50.080;14.418;2023-03-01T03:58:04;36.55;;;19.80;;
73632;SDS011;61927;50.080;14.418;2023-03-01T04:00:33;36.90;;;20.33;;
73632;SDS011;61927;50.080;14.418;2023-03-01T04:03:00;36.30;;;19.75;;
73632;SDS011;61927;50.080;14.418;2023-03-01T04:05:26;43.00;;;19.98;;
73632;SDS011;61927;50.080;14.418;2023-03-01T04:07:52;41.80;;;21.30;;
73632;SDS011;61927;50.080;14.418;2023-03-01T04:10:27;39.40;;;20.63;;
73632;SDS011;61927;50.080;14.418;2023-03-01T04:12:54;37.95;;;19.60;;
73632;SDS011;61927;50.080;14.418;2023-03-01T04:15:21;36.03;;;20.08;;
73632;SDS011;61927;50.080;14.418;2023-03-01T04:17:49;46.88;;;20.23;;
73632;SDS011;61927;50.080;14.418;2023-03-01T04:20:20;35.50;;;19.58;;
73632;SDS011;61927;50.080;14.418;2023-03-01T04:28:22;37.38;;;19.83;;
73632;SDS011;61927;50.080;14.418;2023-03-01T04:30:50;47.20;;;19.77;;
73632;SDS011;61927;50.080;14.418;2023-03-01T04:33:17;44.35;;;20.98;;
73632;SDS011;61927;50.080;14.418;2023-03-01T04:35:43;33.42;;;20.13;;
73632;SDS011;61927;50.080;14.418;2023-03-01T04:38:09;38.88;;;19.83;;
73632;SDS011;61927;50.080;14.418;2023-03-01T04:40:35;36.10;;;19.65;;
73632;SDS011;61927;50.080;14.418;2023-03-01T04:43:01;39.03;;;20.50;;
73632;SDS011;61927;50.080;14.418;2023-03-01T04:45:27;39.53;;;19.50;;
73632;SDS011;61927;50.080;14.418;2023-03-01T04:47:53;40.53;;;20.60;;
73632;SDS011;61927;50.080;14.418;2023-03-01T04:50:19;44.30;;;20.83;;
73632;SDS011;61927;50.080;14.418;2023-03-01T04:52:46;39.50;;;21.63;;
73632;SDS011;61927;50.080;14.418;2023-03-01T04:55:12;39.17;;;21.45;;
73632;SDS011;61927;50.080;14.418;2023-03-01T04:57:39;40.60;;;20.20;;
73632;SDS011;61927;50.080;14.418;2023-03-01T05:00:05;36.13;;;20.15;;
73632;SDS011;61927;50.080;14.418;2023-03-01T05:02:52;39.92;;;20.33;;
73632;SDS011;61927;50.080;14.418;2023-03-01T05:05:30;33.10;;;19.42;;
73632;SDS011;61927;50.080;14.418;2023-03-01T05:08:00;35.60;;;20.98;;
73632;SDS011;61927;50.080;14.418;2023-03-01T05:10:28;37.40;;;20.55;;
73632;SDS011;61927;50.080;14.418;2023-03-01T05:12:59;37.10;;;18.85;;
73632;SDS011;61927;50.080;14.418;2023-03-01T05:15:28;42.45;;;21.00;;
73632;SDS011;61927;50.080;14.418;2023-03-01T05:17:56;35.15;;;19.55;;
73632;SDS011;61927;50.080;14.418;2023-03-01T05:20:26;42.10;;;19.48;;
73632;SDS011;61927;50.080;14.418;2023-03-01T05:22:55;39.03;;;19.60;;
73632;SDS011;61927;50.080;14.418;2023-03-01T05:25:24;38.63;;;19.63;;
73632;SDS011;61927;50.080;14.418;2023-03-01T05:27:50;37.08;;;19.17;;
73632;SDS011;61927;50.080;14.418;2023-03-01T05:30:16;33.80;;;18.85;;
73632;SDS011;61927;50.080;14.418;2023-03-01T05:32:47;39.15;;;19.85;;
73632;SDS011;61927;50.080;14.418;2023-03-01T05:35:14;38.58;;;20.02;;
73632;SDS011;61927;50.080;14.418;2023-03-01T05:37:42;37.10;;;18.55;;
73632;SDS011;61927;50.080;14.418;2023-03-01T05:40:12;32.72;;;18.48;;
73632;SDS011;61927;50.080;14.418;2023-03-01T05:42:42;41.63;;;20.15;;
73632;SDS011;61927;50.080;14.418;2023-03-01T05:45:11;46.28;;;19.50;;
73632;SDS011;61927;50.080;14.418;2023-03-01T05:47:38;37.33;;;20.00;;
73632;SDS011;61927;50.080;14.418;2023-03-01T05:50:09;36.78;;;18.80;;
73632;SDS011;61927;50.080;14.418;2023-03-01T05:52:39;38.65;;;19.08;;
73632;SDS011;61927;50.080;14.418;2023-03-01T05:55:05;36.13;;;20.30;;
73632;SDS011;61927;50.080;14.418;2023-03-01T05:57:31;36.60;;;19.20;;
73632;SDS011;61927;50.080;14.418;2023-03-01T05:59:57;37.53;;;19.63;;
73632;SDS011;61927;50.080;14.418;2023-03-01T06:02:23;39.25;;;20.15;;
73632;SDS011;61927;50.080;14.418;2023-03-01T06:04:48;38.58;;;20.08;;
73632;SDS011;61927;50.080;14.418;2023-03-01T06:07:14;36.47;;;20.83;;
73632;SDS011;61927;50.080;14.418;2023-03-01T06:09:39;36.42;;;19.40;;
73632;SDS011;61927;50.080;14.418;2023-03-01T06:12:05;40.33;;;20.48;;
73632;SDS011;61927;50.080;14.418;2023-03-01T06:14:31;43.95;;;19.33;;
73632;SDS011;61927;50.080;14.418;2023-03-01T06:16:57;37.65;;;20.05;;
73632;SDS011;61927;50.080;14.418;2023-03-01T06:19:23;36.80;;;19.17;;
73632;SDS011;61927;50.080;14.418;2023-03-01T06:21:48;37.83;;;21.05;;
73632;SDS011;61927;50.080;14.418;2023-03-01T06:24:14;38.15;;;20.75;;
73632;SDS011;61927;50.080;14.418;2023-03-01T06:26:40;35.83;;;20.13;;
73632;SDS011;61927;50.080;14.418;2023-03-01T06:29:05;37.28;;;20.10;;
73632;SDS011;61927;50.080;14.418;2023-03-01T06:31:31;43.75;;;20.92;;
73632;SDS011;61927;50.080;14.418;2023-03-01T06:33:56;39.45;;;20.15;;
73632;SDS011;61927;50.080;14.418;2023-03-01T06:36:22;37.25;;;20.73;;
73632;SDS011;61927;50.080;14.418;2023-03-01T06:38:47;41.78;;;20.30;;
73632;SDS011;61927;50.080;14.418;2023-03-01T06:41:13;39.10;;;18.73;;
73632;SDS011;61927;50.080;14.418;2023-03-01T06:43:39;36.65;;;19.42;;
73632;SDS011;61927;50.080;14.418;2023-03-01T06:46:05;43.60;;;20.88;;
73632;SDS011;61927;50.080;14.418;2023-03-01T06:48:31;42.10;;;21.05;;
73632;SDS011;61927;50.080;14.418;2023-03-01T06:50:59;38.55;;;19.15;;
73632;SDS011;61927;50.080;14.418;2023-03-01T06:53:26;44.00;;;21.38;;
73632;SDS011;61927;50.080;14.418;2023-03-01T06:55:56;38.45;;;20.65;;
73632;SDS011;61927;50.080;14.418;2023-03-01T06:58:22;45.30;;;21.23;;
73632;SDS011;61927;50.080;14.418;2023-03-01T07:00:48;36.50;;;20.45;;
73632;SDS011;61927;50.080;14.418;2023-03-01T07:03:14;40.00;;;20.83;;
73632;SDS011;61927;50.080;14.418;2023-03-01T07:05:39;54.50;;;21.55;;
73632;SDS011;61927;50.080;14.418;2023-03-01T07:08:05;37.38;;;20.33;;
73632;SDS011;61927;50.080;14.418;2023-03-01T07:10:31;39.80;;;21.67;;
73632;SDS011;61927;50.080;14.418;2023-03-01T07:12:57;46.47;;;21.83;;
73632;SDS011;61927;50.080;14.418;2023-03-01T07:15:23;46.60;;;22.58;;
73632;SDS011;61927;50.080;14.418;2023-03-01T07:17:50;49.45;;;21.58;;
73632;SDS011;61927;50.080;14.418;2023-03-01T07:20:19;43.47;;;21.95;;
73632;SDS011;61927;50.080;14.418;2023-03-01T07:22:50;47.03;;;22.08;;
73632;SDS011;61927;50.080;14.418;2023-03-01T07:25:17;45.78;;;24.02;;
73632;SDS011;61927;50.080;14.418;2023-03-01T07:27:42;45.10;;;20.33;;
73632;SDS011;61927;50.080;14.418;2023-03-01T07:30:08;36.92;;;20.67;;
73632;SDS011;61927;50.080;14.418;2023-03-01T07:32:34;42.28;;;21.88;;
73632;SDS011;61927;50.080;14.418;2023-03-01T07:35:00;43.90;;;22.77;;
73632;SDS011;61927;50.080;14.418;2023-03-01T07:37:26;49.72;;;23.42;;
73632;SDS011;61927;50.080;14.418;2023-03-01T07:39:52;52.45;;;23.17;;
73632;SDS011;61927;50.080;14.418;2023-03-01T07:42:17;41.20;;;22.15;;
73632;SDS011;61927;50.080;14.418;2023-03-01T07:44:43;42.50;;;22.33;;
73632;SDS011;61927;50.080;14.418;2023-03-01T07:47:08;42.92;;;22.35;;
73632;SDS011;61927;50.080;14.418;2023-03-01T07:49:34;40.15;;;20.80;;
73632;SDS011;61927;50.080;14.418;2023-03-01T07:51:59;49.95;;;21.45;;
73632;SDS011;61927;50.080;14.418;2023-03-01T07:54:25;42.75;;;21.63;;
73632;SDS011;61927;50.080;14.418;2023-03-01T07:56:51;40.95;;;20.35;;
73632;SDS011;61927;50.080;14.418;2023-03-01T07:59:17;54.08;;;20.33;;
73632;SDS011;61927;50.080;14.418;2023-03-01T08:01:42;40.88;;;21.08;;
73632;SDS011;61927;50.080;14.418;2023-03-01T08:04:08;36.92;;;20.30;;
73632;SDS011;61927;50.080;14.418;2023-03-01T08:06:34;44.05;;;20.40;;
73632;SDS011;61927;50.080;14.418;2023-03-01T08:09:00;36.70;;;19.13;;
73632;SDS011;61927;50.080;14.418;2023-03-01T08:11:26;34.72;;;19.02;;
73632;SDS011;61927;50.080;14.418;2023-03-01T08:13:53;39.38;;;20.05;;
73632;SDS011;61927;50.080;14.418;2023-03-01T08:16:19;34.50;;;19.23;;
73632;SDS011;61927;50.080;14.418;2023-03-01T08:18:45;48.08;;;23.65;;
73632;SDS011;61927;50.080;14.418;2023-03-01T08:21:12;42.63;;;20.95;;
73632;SDS011;61927;50.080;14.418;2023-03-01T08:23:40;37.65;;;20.20;;
73632;SDS011;61927;50.080;14.418;2023-03-01T08:26:07;40.83;;;19.65;;
73632;SDS011;61927;50.080;14.418;2023-03-01T08:28:35;44.90;;;19.38;;
73632;SDS011;61927;50.080;14.418;2023-03-01T08:31:01;34.53;;;19.70;;
73632;SDS011;61927;50.080;14.418;2023-03-01T08:33:27;45.15;;;18.80;;
73632;SDS011;61927;50.080;14.418;2023-03-01T08:36:01;49.70;;;21.02;;
73632;SDS011;61927;50.080;14.418;2023-03-01T08:38:29;41.45;;;21.10;;
73632;SDS011;61927;50.080;14.418;2023-03-01T08:40:54;57.03;;;21.13;;
73632;SDS011;61927;50.080;14.418;2023-03-01T08:43:20;38.20;;;21.52;;
73632;SDS011;61927;50.080;14.418;2023-03-01T08:45:47;55.10;;;21.92;;
73632;SDS011;61927;50.080;14.418;2023-03-01T08:48:13;48.47;;;23.13;;
73632;SDS011;61927;50.080;14.418;2023-03-01T08:50:39;44.60;;;23.73;;
73632;SDS011;61927;50.080;14.418;2023-03-01T08:53:04;36.25;;;20.58;;
73632;SDS011;61927;50.080;14.418;2023-03-01T08:55:30;35.38;;;21.30;;
73632;SDS011;61927;50.080;14.418;2023-03-01T08:57:56;43.53;;;21.95;;
73632;SDS011;61927;50.080;14.418;2023-03-01T09:00:24;47.65;;;23.95;;
73632;SDS011;61927;50.080;14.418;2023-03-01T09:02:50;37.65;;;18.52;;
73632;SDS011;61927;50.080;14.418;2023-03-01T09:05:15;31.95;;;17.98;;
73632;SDS011;61927;50.080;14.418;2023-03-01T09:07:41;33.05;;;18.35;;
73632;SDS011;61927;50.080;14.418;2023-03-01T09:10:29;43.13;;;20.45;;
73632;SDS011;61927;50.080;14.418;2023-03-01T09:12:54;39.70;;;18.63;;
73632;SDS011;61927;50.080;14.418;2023-03-01T09:15:42;35.65;;;19.33;;
73632;SDS011;61927;50.080;14.418;2023-03-01T09:18:08;41.28;;;21.25;;
73632;SDS011;61927;50.080;14.418;2023-03-01T09:20:33;34.88;;;17.90;;
73632;SDS011;61927;50.080;14.418;2023-03-01T09:22:59;38.53;;;19.65;;
73632;SDS011;61927;50.080;14.418;2023-03-01T09:25:25;32.60;;;18.02;;
73632;SDS011;61927;50.080;14.418;2023-03-01T09:27:51;32.50;;;18.77;;
73632;SDS011;61927;50.080;14.418;2023-03-01T09:30:17;38.08;;;20.23;;
73632;SDS011;61927;50.080;14.418;2023-03-01T09:32:44;37.58;;;20.83;;
73632;SDS011;61927;50.080;14.418;2023-03-01T09:35:10;46.92;;;19.15;;
73632;SDS011;61927;50.080;14.418;2023-03-01T09:37:36;41.50;;;18.70;;
73632;SDS011;61927;50.080;14.418;2023-03-01T09:40:06;32.67;;;17.67;;
73632;SDS011;61927;50.080;14.418;2023-03-01T09:42:45;34.65;;;17.92;;
73632;SDS011;61927;50.080;14.418;2023-03-01T09:45:19;39.58;;;18.05;;
73632;SDS011;61927;50.080;14.418;2023-03-01T09:47:51;29.60;;;15.70;;
73632;SDS011;61927;50.080;14.418;2023-03-01T09:50:18;30.63;;;17.50;;
73632;SDS011;61927;50.080;14.418;2023-03-01T09:55:15;30.92;;;15.40;;
73632;SDS011;61927;50.080;14.418;2023-03-01T09:57:53;35.40;;;16.00;;
73632;SDS011;61927;50.080;14.418;2023-03-01T10:05:40;29.63;;;17.27;;
73632;SDS011;61927;50.080;14.418;2023-03-01T10:10:34;34.97;;;18.60;;
73632;SDS011;61927;50.080;14.418;2023-03-01T10:13:04;29.33;;;16.88;;
73632;SDS011;61927;50.080;14.418;2023-03-01T10:16:10;38.25;;;17.90;;
73632;SDS011;61927;50.080;14.418;2023-03-01T10:18:40;36.80;;;17.30;;
73632;SDS011;61927;50.080;14.418;2023-03-01T10:21:12;31.48;;;18.50;;
73632;SDS011;61927;50.080;14.418;2023-03-01T10:23:44;33.53;;;17.98;;
73632;SDS011;61927;50.080;14.418;2023-03-01T10:26:33;28.70;;;16.52;;
73632;SDS011;61927;50.080;14.418;2023-03-01T10:29:12;31.45;;;17.27;;
73632;SDS011;61927;50.080;14.418;2023-03-01T10:31:46;52.38;;;25.13;;
73632;SDS011;61927;50.080;14.418;2023-03-01T10:34:18;30.63;;;16.92;;
73632;SDS011;61927;50.080;14.418;2023-03-01T10:36:53;30.08;;;16.75;;
73632;SDS011;61927;50.080;14.418;2023-03-01T10:39:23;28.88;;;15.18;;
73632;SDS011;61927;50.080;14.418;2023-03-01T10:41:54;28.25;;;15.70;;
73632;SDS011;61927;50.080;14.418;2023-03-01T10:47:22;28.35;;;15.35;;
73632;SDS011;61927;50.080;14.418;2023-03-01T10:50:00;28.42;;;14.15;;
73632;SDS011;61927;50.080;14.418;2023-03-01T10:52:35;33.97;;;13.82;;
73632;SDS011;61927;50.080;14.418;2023-03-01T10:58:05;32.05;;;16.33;;
73632;SDS011;61927;50.080;14.418;2023-03-01T11:00:45;24.73;;;14.98;;
73632;SDS011;61927;50.080;14.418;2023-03-01T11:03:14;33.30;;;15.75;;
73632;SDS011;61927;50.080;14.418;2023-03-01T11:08:29;29.88;;;14.20;;
73632;SDS011;61927;50.080;14.418;2023-03-01T11:11:03;37.40;;;17.60;;
73632;SDS011;61927;50.080;14.418;2023-03-01T11:13:59;28.38;;;14.90;;
73632;SDS011;61927;50.080;14.418;2023-03-01T11:16:33;26.25;;;14.88;;
73632;SDS011;61927;50.080;14.418;2023-03-01T11:22:25;31.85;;;16.50;;
73632;SDS011;61927;50.080;14.418;2023-03-01T11:24:52;28.90;;;15.35;;
73632;SDS011;61927;50.080;14.418;2023-03-01T11:27:27;28.90;;;16.23;;
73632;SDS011;61927;50.080;14.418;2023-03-01T11:30:00;31.08;;;15.75;;
73632;SDS011;61927;50.080;14.418;2023-03-01T11:32:34;27.50;;;15.82;;
73632;SDS011;61927;50.080;14.418;2023-03-01T11:35:09;25.90;;;14.98;;
73632;SDS011;61927;50.080;14.418;2023-03-01T11:37:41;27.45;;;15.32;;
73632;SDS011;61927;50.080;14.418;2023-03-01T11:40:32;30.70;;;15.88;;
73632;SDS011;61927;50.080;14.418;2023-03-01T11:51:59;23.60;;;13.93;;
73632;SDS011;61927;50.080;14.418;2023-03-01T11:55:16;25.08;;;14.25;;
73632;SDS011;61927;50.080;14.418;2023-03-01T12:01:03;33.47;;;15.00;;
73632;SDS011;61927;50.080;14.418;2023-03-01T12:06:52;35.00;;;17.90;;
73632;SDS011;61927;50.080;14.418;2023-03-01T12:23:45;23.52;;;14.98;;
73632;SDS011;61927;50.080;14.418;2023-03-01T12:32:00;24.83;;;15.52;;
73632;SDS011;61927;50.080;14.418;2023-03-01T12:40:29;27.50;;;16.05;;
73632;SDS011;61927;50.080;14.418;2023-03-01T12:46:10;28.30;;;16.92;;
73632;SDS011;61927;50.080;14.418;2023-03-01T12:51:15;31.15;;;17.67;;
73632;SDS011;61927;50.080;14.418;2023-03-01T12:53:49;27.73;;;15.70;;
73632;SDS011;61927;50.080;14.418;2023-03-01T12:56:18;30.90;;;17.17;;
73632;SDS011;61927;50.080;14.418;2023-03-01T12:58:53;29.35;;;15.65;;
73632;SDS011;61927;50.080;14.418;2023-03-01T13:06:44;28.30;;;16.30;;
73632;SDS011;61927;50.080;14.418;2023-03-01T13:12:03;38.47;;;20.05;;
73632;SDS011;61927;50.080;14.418;2023-03-01T13:16:57;27.77;;;16.25;;
73632;SDS011;61927;50.080;14.418;2023-03-01T13:19:23;24.25;;;14.38;;
73632;SDS011;61927;50.080;14.418;2023-03-01T13:21:51;24.52;;;15.20;;
73632;SDS011;61927;50.080;14.418;2023-03-01T13:25:03;27.83;;;16.17;;
73632;SDS011;61927;50.080;14.418;2023-03-01T13:34:49;34.63;;;18.33;;
73632;SDS011;61927;50.080;14.418;2023-03-01T13:37:27;34.70;;;15.10;;
73632;SDS011;61927;50.080;14.418;2023-03-01T13:39:59;26.95;;;14.95;;
73632;SDS011;61927;50.080;14.418;2023-03-01T13:42:34;25.88;;;14.52;;
73632;SDS011;61927;50.080;14.418;2023-03-01T13:45:14;38.20;;;15.15;;
73632;SDS011;61927;50.080;14.418;2023-03-01T13:47:48;35.03;;;14.93;;
73632;SDS011;61927;50.080;14.418;2023-03-01T13:50:20;27.00;;;14.30;;
73632;SDS011;61927;50.080;14.418;2023-03-01T13:55:19;26.38;;;13.80;;
73632;SDS011;61927;50.080;14.418;2023-03-01T13:57:49;26.58;;;15.65;;
73632;SDS011;61927;50.080;14.418;2023-03-01T14:05:59;33.40;;;14.80;;
73632;SDS011;61927;50.080;14.418;2023-03-01T14:08:37;28.48;;;15.80;;
73632;SDS011;61927;50.080;14.418;2023-03-01T14:16:44;20.45;;;13.95;;
73632;SDS011;61927;50.080;14.418;2023-03-01T14:21:58;26.63;;;13.98;;
73632;SDS011;61927;50.080;14.418;2023-03-01T14:24:56;25.83;;;13.93;;
73632;SDS011;61927;50.080;14.418;2023-03-01T14:27:37;28.70;;;13.43;;
73632;SDS011;61927;50.080;14.418;2023-03-01T14:32:54;26.65;;;13.32;;
73632;SDS011;61927;50.080;14.418;2023-03-01T14:35:31;19.67;;;13.40;;
73632;SDS011;61927;50.080;14.418;2023-03-01T14:37:59;34.08;;;14.73;;
73632;SDS011;61927;50.080;14.418;2023-03-01T14:42:56;32.70;;;14.90;;
73632;SDS011;61927;50.080;14.418;2023-03-01T14:45:25;23.23;;;13.05;;
73632;SDS011;61927;50.080;14.418;2023-03-01T14:47:53;16.25;;;12.05;;
73632;SDS011;61927;50.080;14.418;2023-03-01T14:50:31;19.77;;;13.20;;
73632;SDS011;61927;50.080;14.418;2023-03-01T14:55:36;20.50;;;12.70;;
73632;SDS011;61927;50.080;14.418;2023-03-01T14:58:09;30.50;;;13.98;;
73632;SDS011;61927;50.080;14.418;2023-03-01T15:00:37;37.75;;;15.10;;
73632;SDS011;61927;50.080;14.418;2023-03-01T15:03:18;29.33;;;16.13;;
73632;SDS011;61927;50.080;14.418;2023-03-01T15:05:50;25.30;;;15.50;;
73632;SDS011;61927;50.080;14.418;2023-03-01T15:08:20;22.45;;;14.40;;
73632;SDS011;61927;50.080;14.418;2023-03-01T15:10:56;38.60;;;15.05;;
73632;SDS011;61927;50.080;14.418;2023-03-01T15:13:43;21.83;;;13.23;;
73632;SDS011;61927;50.080;14.418;2023-03-01T15:18:45;24.88;;;13.65;;
73632;SDS011;61927;50.080;14.418;2023-03-01T15:21:17;21.58;;;12.50;;
73632;SDS011;61927;50.080;14.418;2023-03-01T15:23:53;19.30;;;12.05;;
73632;SDS011;61927;50.080;14.418;2023-03-01T15:26:40;20.45;;;12.45;;
73632;SDS011;61927;50.080;14.418;2023-03-01T15:29:16;23.83;;;12.57;;
73632;SDS011;61927;50.080;14.418;2023-03-01T15:31:53;23.98;;;13.48;;
73632;SDS011;61927;50.080;14.418;2023-03-01T15:36:59;24.30;;;11.27;;
73632;SDS011;61927;50.080;14.418;2023-03-01T15:39:34;20.48;;;12.00;;
73632;SDS011;61927;50.080;14.418;2023-03-01T15:42:04;23.67;;;13.73;;
73632;SDS011;61927;50.080;14.418;2023-03-01T15:44:34;70.75;;;39.05;;
73632;SDS011;61927;50.080;14.418;2023-03-01T15:47:01;24.67;;;14.55;;
73632;SDS011;61927;50.080;14.418;2023-03-01T15:49:46;47.67;;;23.85;;
73632;SDS011;61927;50.080;14.418;2023-03-01T15:52:26;24.83;;;12.52;;
73632;SDS011;61927;50.080;14.418;2023-03-01T15:54:55;20.00;;;12.55;;
73632;SDS011;61927;50.080;14.418;2023-03-01T15:57:22;24.17;;;12.13;;
73632;SDS011;61927;50.080;14.418;2023-03-01T15:59:48;22.45;;;12.57;;
73632;SDS011;61927;50.080;14.418;2023-03-01T16:02:14;27.27;;;12.40;;
73632;SDS011;61927;50.080;14.418;2023-03-01T16:04:40;19.88;;;12.05;;
73632;SDS011;61927;50.080;14.418;2023-03-01T16:07:05;18.80;;;12.05;;
73632;SDS011;61927;50.080;14.418;2023-03-01T16:09:31;16.20;;;10.65;;
73632;SDS011;61927;50.080;14.418;2023-03-01T16:11:57;21.40;;;11.73;;
73632;SDS011;61927;50.080;14.418;2023-03-01T16:14:23;18.70;;;11.23;;
73632;SDS011;61927;50.080;14.418;2023-03-01T16:16:49;24.80;;;14.18;;
73632;SDS011;61927;50.080;14.418;2023-03-01T16:19:14;24.77;;;11.95;;
73632;SDS011;61927;50.080;14.418;2023-03-01T16:21:41;20.50;;;11.45;;
73632;SDS011;61927;50.080;14.418;2023-03-01T16:24:12;21.45;;;12.02;;
73632;SDS011;61927;50.080;14.418;2023-03-01T16:26:38;23.40;;;12.52;;
73632;SDS011;61927;50.080;14.418;2023-03-01T16:29:04;31.27;;;15.93;;
73632;SDS011;61927;50.080;14.418;2023-03-01T16:31:30;24.17;;;12.93;;
73632;SDS011;61927;50.080;14.418;2023-03-01T16:33:56;25.10;;;15.18;;
73632;SDS011;61927;50.080;14.418;2023-03-01T16:36:23;21.13;;;12.98;;
73632;SDS011;61927;50.080;14.418;2023-03-01T16:38:51;25.88;;;13.38;;
73632;SDS011;61927;50.080;14.418;2023-03-01T16:41:18;23.17;;;12.85;;
73632;SDS011;61927;50.080;14.418;2023-03-01T16:43:45;26.23;;;14.02;;